Time;durP1;ratioP1;P1;durP2;ratioP2;P2;SDS_P1;SDS_P2;PMS_P1;PMS_P2;Temp;Humidity;BMP_temperature;BMP_pressure;BME280_temperature;BME280_humidity;BME280_pressure;Samples;Min_cycle;Max_cycle;Signal;HPM_P1;HPM_P2
2022/07/27 00:00:55;;;;;;;2.58;1.17;;;;;;;;;;4879948;29;20033;-66
2022/07/27 00:03:22;;;;;;;4.82;1.10;;;;;;;;;;4880044;29;20045;-67
2022/07/27 00:05:48;;;;;;;5.72;0.95;;;;;;;;;;4879900;29;20482;-67
2022/07/27 00:08:15;;;;;;;3.70;0.80;;;;;;;;;;4883262;29;20041;-67
2022/07/27 00:10:41;;;;;;;2.03;0.90;;;;;;;;;;4879946;29;20029;-67
2022/07/27 00:13:08;;;;;;;4.47;0.80;;;;;;;;;;4880118;29;20043;-67
2022/07/27 00:15:34;;;;;;;1.38;0.90;;;;;;;;;;4879516;29;20029;-66
2022/07/27 00:18:01;;;;;;;3.28;0.95;;;;;;;;;;4879844;29;20039;-67
2022/07/27 00:20:30;;;;;;;2.20;0.75;;;;;;;;;;4879733;29;20021;-67
2022/07/27 00:22:57;;;;;;;4.20;0.70;;;;;;;;;;4879635;29;20029;-67
2022/07/27 00:25:25;;;;;;;1.42;0.75;;;;;;;;;;4879582;29;20025;-67
2022/07/27 00:27:52;;;;;;;3.60;1.00;;;;;;;;;;4879264;29;20037;-67
2022/07/27 00:30:18;;;;;;;2.42;0.80;;;;;;;;;;4879490;29;20025;-67
2022/07/27 00:32:45;;;;;;;1.42;0.70;;;;;;;;;;4879204;29;20036;-67
2022/07/27 00:35:12;;;;;;;2.22;0.98;;;;;;;;;;4879768;29;20029;-67
2022/07/27 00:37:39;;;;;;;3.20;1.20;;;;;;;;;;4879488;29;20490;-67
2022/07/27 00:40:06;;;;;;;4.72;1.17;;;;;;;;;;4879394;29;20039;-67
2022/07/27 00:42:32;;;;;;;1.85;0.75;;;;;;;;;;4878846;29;20032;-67
2022/07/27 00:44:59;;;;;;;1.40;0.80;;;;;;;;;;4879347;29;20438;-67
2022/07/27 00:47:26;;;;;;;2.28;0.88;;;;;;;;;;4879258;29;20040;-67
2022/07/27 00:49:52;;;;;;;2.25;1.00;;;;;;;;;;4879226;29;20027;-67
2022/07/27 00:52:20;;;;;;;3.03;1.00;;;;;;;;;;4879155;29;20454;-68
2022/07/27 00:54:47;;;;;;;1.83;0.90;;;;;;;;;;4879351;29;20035;-67
2022/07/27 00:57:14;;;;;;;1.92;0.75;;;;;;;;;;4878908;29;20047;-67
2022/07/27 00:59:40;;;;;;;1.05;0.80;;;;;;;;;;4879084;29;20501;-67
2022/07/27 01:02:08;;;;;;;1.67;0.82;;;;;;;;;;4878881;29;20033;-67
2022/07/27 01:04:34;;;;;;;2.63;0.90;;;;;;;;;;4878857;29;20156;-67
2022/07/27 01:07:02;;;;;;;2.20;0.85;;;;;;;;;;4882294;29;20040;-67
2022/07/27 01:12:18;;;;;;;1.33;0.90;;;;;;;;;;4878752;29;20033;-67
2022/07/27 01:14:45;;;;;;;3.75;0.73;;;;;;;;;;4879094;29;20017;-67
2022/07/27 01:17:11;;;;;;;2.78;1.10;;;;;;;;;;4878730;29;20035;-67
2022/07/27 01:19:37;;;;;;;1.17;0.80;;;;;;;;;;4878726;29;20043;-67
2022/07/27 01:22:05;;;;;;;3.60;1.17;;;;;;;;;;4878912;29;20033;-67
2022/07/27 01:24:32;;;;;;;3.53;1.20;;;;;;;;;;4878556;29;20021;-67
2022/07/27 01:27:02;;;;;;;0.70;0.65;;;;;;;;;;4878344;29;20033;-67
2022/07/27 01:29:29;;;;;;;2.25;0.88;;;;;;;;;;4878817;29;20033;-67
2022/07/27 01:31:55;;;;;;;2.90;0.90;;;;;;;;;;4878762;29;20037;-67
2022/07/27 01:34:21;;;;;;;2.25;1.00;;;;;;;;;;4878520;29;20039;-67
2022/07/27 01:36:48;;;;;;;4.80;1.27;;;;;;;;;;4878796;29;20037;-67
2022/07/27 01:39:15;;;;;;;2.63;0.80;;;;;;;;;;4878672;29;20033;-67
2022/07/27 01:41:41;;;;;;;0.90;0.80;;;;;;;;;;4878177;29;20029;-67
2022/07/27 01:44:07;;;;;;;6.05;0.90;;;;;;;;;;4878148;29;20454;-67
2022/07/27 01:46:34;;;;;;;5.10;1.30;;;;;;;;;;4878280;29;20092;-67
2022/07/27 01:49:00;;;;;;;1.92;0.82;;;;;;;;;;4878340;29;20047;-67
2022/07/27 01:51:27;;;;;;;2.60;0.95;;;;;;;;;;4878426;29;20039;-67
2022/07/27 01:53:53;;;;;;;2.20;1.00;;;;;;;;;;4878492;29;20025;-67
2022/07/27 01:56:19;;;;;;;2.53;0.90;;;;;;;;;;4878060;29;20047;-67
2022/07/27 01:58:46;;;;;;;2.65;0.73;;;;;;;;;;4878337;29;20028;-67
2022/07/27 02:01:12;;;;;;;1.80;0.98;;;;;;;;;;4878346;29;20033;-67
2022/07/27 02:03:38;;;;;;;2.15;1.00;;;;;;;;;;4878224;29;20410;-67
2022/07/27 02:06:05;;;;;;;3.10;0.90;;;;;;;;;;4879663;29;20037;-67
2022/07/27 02:08:31;;;;;;;2.63;0.88;;;;;;;;;;4879722;29;20087;-67
2022/07/27 02:13:43;;;;;;;2.00;1.02;;;;;;;;;;4878261;29;20029;-67
2022/07/27 02:16:09;;;;;;;2.20;0.90;;;;;;;;;;4878496;29;20017;-67
2022/07/27 02:18:36;;;;;;;5.40;1.30;;;;;;;;;;4878262;29;20039;-67
2022/07/27 02:21:03;;;;;;;1.98;1.00;;;;;;;;;;4861360;29;20029;-67
2022/07/27 02:23:30;;;;;;;4.00;1.00;;;;;;;;;;4878101;29;20032;-67
2022/07/27 02:25:57;;;;;;;4.15;1.00;;;;;;;;;;4877721;29;20044;-67
2022/07/27 02:28:23;;;;;;;3.28;1.00;;;;;;;;;;4878093;29;20053;-67
2022/07/27 02:30:49;;;;;;;2.63;0.73;;;;;;;;;;4878009;29;20049;-67
2022/07/27 02:33:15;;;;;;;3.22;1.02;;;;;;;;;;4878016;29;20049;-67
2022/07/27 02:35:42;;;;;;;4.68;1.10;;;;;;;;;;4861528;29;20033;-67
2022/07/27 02:38:08;;;;;;;1.40;0.77;;;;;;;;;;4878371;29;20032;-67
2022/07/27 02:40:35;;;;;;;2.15;0.80;;;;;;;;;;4877625;29;20035;-67
2022/07/27 02:43:01;;;;;;;3.13;1.10;;;;;;;;;;4877821;29;20402;-67
2022/07/27 02:45:27;;;;;;;1.85;1.00;;;;;;;;;;4878212;29;20032;-67
2022/07/27 02:47:53;;;;;;;1.85;0.75;;;;;;;;;;4877804;29;20037;-67
2022/07/27 02:50:20;;;;;;;3.17;0.90;;;;;;;;;;4878164;29;20033;-67
2022/07/27 02:52:46;;;;;;;2.83;1.10;;;;;;;;;;4877755;29;20036;-70
2022/07/27 02:55:13;;;;;;;3.08;0.90;;;;;;;;;;4879796;29;20043;-67
2022/07/27 02:57:39;;;;;;;2.97;1.00;;;;;;;;;;4881235;29;20397;-67
2022/07/27 03:00:11;;;;;;;1.17;0.80;;;;;;;;;;4881184;29;20029;-67
2022/07/27 03:02:37;;;;;;;3.22;1.13;;;;;;;;;;4881203;29;20029;-66
2022/07/27 03:05:07;;;;;;;2.72;1.05;;;;;;;;;;4881046;29;20047;-67
2022/07/27 03:07:34;;;;;;;1.92;1.00;;;;;;;;;;4883783;29;20025;-67
2022/07/27 03:10:00;;;;;;;3.22;1.10;;;;;;;;;;4881300;29;20021;-67
2022/07/27 03:12:27;;;;;;;2.08;1.00;;;;;;;;;;4881168;29;20033;-67
2022/07/27 03:14:53;;;;;;;5.10;1.00;;;;;;;;;;4880790;29;20043;-67
2022/07/27 03:17:19;;;;;;;3.00;1.02;;;;;;;;;;4881076;29;20029;-67
2022/07/27 03:19:48;;;;;;;5.10;1.20;;;;;;;;;;4880620;29;20040;-67
2022/07/27 03:22:15;;;;;;;3.83;1.00;;;;;;;;;;4880532;29;20513;-67
2022/07/27 03:24:41;;;;;;;3.70;1.00;;;;;;;;;;4863999;29;20029;-67
2022/07/27 03:27:07;;;;;;;2.28;1.10;;;;;;;;;;4880929;29;20043;-67
2022/07/27 03:29:33;;;;;;;2.85;1.10;;;;;;;;;;4880749;29;20040;-67
2022/07/27 03:32:00;;;;;;;1.75;0.82;;;;;;;;;;4880566;29;20487;-67
2022/07/27 03:34:26;;;;;;;2.05;1.00;;;;;;;;;;4880880;29;20037;-67
2022/07/27 03:36:52;;;;;;;1.38;0.90;;;;;;;;;;4880225;29;20084;-67
2022/07/27 03:39:19;;;;;;;2.70;1.30;;;;;;;;;;4880473;29;20059;-67
2022/07/27 03:41:45;;;;;;;2.63;0.98;;;;;;;;;;4880360;29;20401;-67
2022/07/27 03:44:11;;;;;;;2.05;1.10;;;;;;;;;;4880381;29;20033;-67
2022/07/27 03:46:37;;;;;;;4.60;1.13;;;;;;;;;;4880439;29;20035;-67
2022/07/27 03:49:04;;;;;;;2.50;1.30;;;;;;;;;;4880743;29;20043;-67
2022/07/27 03:51:30;;;;;;;1.90;1.10;;;;;;;;;;4880021;29;20385;-67
2022/07/27 03:53:57;;;;;;;2.78;1.17;;;;;;;;;;4863551;29;20052;-67
2022/07/27 03:56:23;;;;;;;2.80;1.00;;;;;;;;;;4880319;29;20075;-67
2022/07/27 03:58:50;;;;;;;5.35;1.00;;;;;;;;;;4880245;29;20479;-67
2022/07/27 04:01:16;;;;;;;5.05;1.17;;;;;;;;;;4880214;29;20037;-67
2022/07/27 04:03:42;;;;;;;3.33;1.00;;;;;;;;;;4879951;29;20045;-67
2022/07/27 04:06:09;;;;;;;4.30;1.33;;;;;;;;;;4881246;29;20037;-67
2022/07/27 04:08:35;;;;;;;2.65;1.33;;;;;;;;;;4864276;29;20041;-67
2022/07/27 04:11:01;;;;;;;5.00;1.10;;;;;;;;;;4880183;29;20386;-67
2022/07/27 04:13:28;;;;;;;2.92;1.23;;;;;;;;;;4880247;29;20033;-67
2022/07/27 04:15:56;;;;;;;3.95;1.25;;;;;;;;;;4879720;29;20032;-67
2022/07/27 04:18:23;;;;;;;6.00;1.02;;;;;;;;;;4879819;29;20023;-67
2022/07/27 04:20:49;;;;;;;6.10;1.20;;;;;;;;;;4879414;29;20033;-67
2022/07/27 04:23:15;;;;;;;1.88;0.93;;;;;;;;;;4879558;29;20071;-67
2022/07/27 04:25:42;;;;;;;1.65;1.10;;;;;;;;;;4879682;29;20088;-67
2022/07/27 04:28:08;;;;;;;4.47;1.17;;;;;;;;;;4879561;29;20048;-67
2022/07/27 04:30:34;;;;;;;1.42;1.13;;;;;;;;;;4879569;29;20017;-67
2022/07/27 04:33:01;;;;;;;2.60;1.00;;;;;;;;;;4879508;29;20437;-67
2022/07/27 04:35:27;;;;;;;1.20;1.00;;;;;;;;;;4879134;29;20406;-67
2022/07/27 04:37:54;;;;;;;3.17;1.20;;;;;;;;;;4879349;29;20027;-67
2022/07/27 04:40:20;;;;;;;3.10;1.30;;;;;;;;;;4879719;29;20047;-67
2022/07/27 04:42:46;;;;;;;3.22;1.40;;;;;;;;;;4879467;29;20089;-67
2022/07/27 04:45:13;;;;;;;2.70;1.30;;;;;;;;;;4879183;29;20398;-67
2022/07/27 04:47:39;;;;;;;2.83;1.25;;;;;;;;;;4879373;29;20036;-67
2022/07/27 04:50:06;;;;;;;8.48;1.33;;;;;;;;;;4879042;29;20029;-67
2022/07/27 04:52:32;;;;;;;3.17;1.30;;;;;;;;;;4879063;29;20031;-67
2022/07/27 04:54:58;;;;;;;3.10;1.25;;;;;;;;;;4879575;29;20029;-67
2022/07/27 04:57:25;;;;;;;5.25;1.20;;;;;;;;;;4879138;29;20061;-67
2022/07/27 04:59:51;;;;;;;3.28;1.33;;;;;;;;;;4879026;29;20017;-67
2022/07/27 05:02:17;;;;;;;5.68;1.50;;;;;;;;;;4879039;29;20033;-67
2022/07/27 05:04:43;;;;;;;5.15;1.30;;;;;;;;;;4878509;29;20045;-67
2022/07/27 05:07:10;;;;;;;3.63;1.20;;;;;;;;;;4882018;29;20055;-67
2022/07/27 05:09:36;;;;;;;2.60;1.17;;;;;;;;;;4879125;29;20021;-67
2022/07/27 05:12:02;;;;;;;5.32;1.38;;;;;;;;;;4878852;29;20033;-67
2022/07/27 05:14:29;;;;;;;4.88;1.20;;;;;;;;;;4879041;29;20025;-67
2022/07/27 05:16:55;;;;;;;1.98;1.20;;;;;;;;;;4878461;29;20029;-67
2022/07/27 05:19:21;;;;;;;4.38;1.55;;;;;;;;;;4878473;29;20025;-67
2022/07/27 05:21:48;;;;;;;4.47;1.30;;;;;;;;;;4878666;29;20032;-67
2022/07/27 05:24:14;;;;;;;5.25;1.40;;;;;;;;;;4878709;29;20359;-67
2022/07/27 05:26:40;;;;;;;4.97;1.27;;;;;;;;;;4878599;29;20064;-67
2022/07/27 05:29:06;;;;;;;6.70;1.30;;;;;;;;;;4878473;29;20100;-67
2022/07/27 05:31:33;;;;;;;5.95;1.42;;;;;;;;;;4878864;29;20025;-67
2022/07/27 05:33:59;;;;;;;2.13;1.20;;;;;;;;;;4878580;29;20033;-67
2022/07/27 05:36:26;;;;;;;4.60;1.20;;;;;;;;;;4878526;29;20021;-67
2022/07/27 05:38:52;;;;;;;4.85;1.40;;;;;;;;;;4878533;29;20591;-67
2022/07/27 05:41:25;;;;;;;3.97;1.25;;;;;;;;;;4878540;29;20029;-67
2022/07/27 05:43:53;;;;;;;5.88;1.33;;;;;;;;;;4878371;29;20025;-67
2022/07/27 05:46:19;;;;;;;8.02;1.40;;;;;;;;;;4878560;29;20051;-67
2022/07/27 05:48:46;;;;;;;9.00;1.60;;;;;;;;;;4861396;29;20045;-67
2022/07/27 05:51:12;;;;;;;8.30;1.55;;;;;;;;;;4878287;29;20025;-67
2022/07/27 05:53:38;;;;;;;4.20;1.50;;;;;;;;;;4878489;29;20494;-67
2022/07/27 05:56:06;;;;;;;3.45;1.30;;;;;;;;;;4878629;29;20025;-67
2022/07/27 05:58:33;;;;;;;14.55;1.60;;;;;;;;;;4877821;29;20364;-67
2022/07/27 06:00:59;;;;;;;2.38;1.55;;;;;;;;;;4878247;29;20025;-66
2022/07/27 06:03:26;;;;;;;7.13;1.30;;;;;;;;;;4877676;29;20402;-65
2022/07/27 06:07:57;;;;;;;11.07;1.60;;;;;;;;;;4878196;29;20045;-66
2022/07/27 06:08:38;;;;;;;4.95;1.30;;;;;;;;;;4861454;29;20052;-67
2022/07/27 06:11:05;;;;;;;6.63;1.50;;;;;;;;;;4878406;29;20054;-67
2022/07/27 06:13:34;;;;;;;3.35;1.55;;;;;;;;;;4873876;29;20399;-64
2022/07/27 06:16:00;;;;;;;9.85;1.58;;;;;;;;;;4875056;29;20027;-64
2022/07/27 06:18:27;;;;;;;4.57;1.70;;;;;;;;;;4886072;29;20036;-64
2022/07/27 06:20:53;;;;;;;4.55;1.33;;;;;;;;;;4889137;29;20041;-64
2022/07/27 06:23:19;;;;;;;6.45;1.50;;;;;;;;;;4877028;29;20044;-64
2022/07/27 06:25:46;;;;;;;9.90;1.88;;;;;;;;;;4873191;29;20495;-64
2022/07/27 06:28:12;;;;;;;4.03;1.60;;;;;;;;;;4858058;29;20037;-65
2022/07/27 06:30:41;;;;;;;7.25;2.20;;;;;;;;;;4871460;29;20036;-64
2022/07/27 06:33:08;;;;;;;6.57;2.35;;;;;;;;;;4868339;29;20454;-64
2022/07/27 06:35:34;;;;;;;5.78;1.50;;;;;;;;;;4877754;29;20560;-64
2022/07/27 06:38:00;;;;;;;6.63;1.50;;;;;;;;;;4885106;29;20051;-65
2022/07/27 06:40:27;;;;;;;10.60;1.70;;;;;;;;;;4872678;29;20029;-64
2022/07/27 06:42:53;;;;;;;3.17;1.40;;;;;;;;;;4878476;29;20025;-65
2022/07/27 06:45:20;;;;;;;3.53;1.50;;;;;;;;;;4868072;29;20026;-64
2022/07/27 06:47:47;;;;;;;2.03;1.30;;;;;;;;;;4861307;29;20514;-64
2022/07/27 06:50:13;;;;;;;6.10;1.40;;;;;;;;;;4861354;29;20093;-64
2022/07/27 06:52:40;;;;;;;6.95;1.60;;;;;;;;;;4861197;29;20041;-64
2022/07/27 06:55:06;;;;;;;4.03;1.58;;;;;;;;;;4864969;29;20029;-64
2022/07/27 06:57:32;;;;;;;3.38;1.60;;;;;;;;;;4880032;29;20418;-64
2022/07/27 06:59:59;;;;;;;5.60;1.20;;;;;;;;;;4867551;29;20032;-64
2022/07/27 07:02:25;;;;;;;6.38;1.17;;;;;;;;;;4868900;29;20048;-64
2022/07/27 07:04:52;;;;;;;3.42;1.40;;;;;;;;;;4878238;29;20065;-65
2022/07/27 07:07:18;;;;;;;3.13;1.10;;;;;;;;;;4882756;29;20036;-64
2022/07/27 07:09:44;;;;;;;3.25;1.05;;;;;;;;;;4876758;29;20040;-64
2022/07/27 07:12:11;;;;;;;6.00;1.20;;;;;;;;;;4871018;29;20026;-65
2022/07/27 07:14:37;;;;;;;6.93;1.40;;;;;;;;;;4859996;29;20025;-64
2022/07/27 07:17:03;;;;;;;11.65;1.40;;;;;;;;;;4872580;29;20025;-65
2022/07/27 07:19:30;;;;;;;5.28;1.33;;;;;;;;;;4879096;29;20040;-64
2022/07/27 07:21:56;;;;;;;2.50;1.27;;;;;;;;;;4879250;29;20100;-65
2022/07/27 07:24:22;;;;;;;5.90;1.30;;;;;;;;;;4879518;29;20029;-65
2022/07/27 07:26:48;;;;;;;5.63;1.95;;;;;;;;;;4865214;29;20037;-65
2022/07/27 07:29:15;;;;;;;3.40;1.90;;;;;;;;;;4860215;29;20411;-64
2022/07/27 07:31:41;;;;;;;6.30;1.90;;;;;;;;;;4860289;29;20040;-65
2022/07/27 07:34:07;;;;;;;4.78;1.60;;;;;;;;;;4860669;29;20029;-64
2022/07/27 07:36:34;;;;;;;7.20;1.60;;;;;;;;;;4870985;29;20041;-65
2022/07/27 07:39:00;;;;;;;3.10;1.70;;;;;;;;;;4873171;29;20063;-65
2022/07/27 07:41:26;;;;;;;4.40;1.67;;;;;;;;;;4867649;29;20090;-65
2022/07/27 07:43:53;;;;;;;1.40;1.30;;;;;;;;;;4864060;29;20367;-65
2022/07/27 07:46:19;;;;;;;4.25;1.67;;;;;;;;;;4878979;29;20040;-65
2022/07/27 07:48:45;;;;;;;5.50;1.50;;;;;;;;;;4874688;29;20045;-65
2022/07/27 07:51:12;;;;;;;8.60;2.00;;;;;;;;;;4875492;29;20025;-65
2022/07/27 07:53:38;;;;;;;4.55;1.70;;;;;;;;;;4877136;29;20025;-65
2022/07/27 07:56:05;;;;;;;3.35;1.40;;;;;;;;;;4878419;29;20467;-65
2022/07/27 07:58:32;;;;;;;3.30;1.55;;;;;;;;;;4876562;29;20029;-65
2022/07/27 08:00:58;;;;;;;3.63;1.15;;;;;;;;;;4878219;29;20023;-69
2022/07/27 08:03:25;;;;;;;4.80;1.10;;;;;;;;;;4875159;29;20092;-69
2022/07/27 08:05:51;;;;;;;2.92;0.90;;;;;;;;;;4868648;29;20033;-69
2022/07/27 08:08:17;;;;;;;4.65;1.20;;;;;;;;;;4879502;29;20051;-69
2022/07/27 08:10:44;;;;;;;6.45;1.05;;;;;;;;;;4875940;29;20027;-69
2022/07/27 08:13:10;;;;;;;2.80;1.02;;;;;;;;;;4861498;29;20486;-69
2022/07/27 08:15:36;;;;;;;4.50;1.42;;;;;;;;;;4878269;29;20040;-69
2022/07/27 08:18:04;;;;;;;5.40;1.70;;;;;;;;;;4877919;29;20405;-69
2022/07/27 08:20:31;;;;;;;5.28;1.30;;;;;;;;;;4877577;29;20071;-69
2022/07/27 08:22:57;;;;;;;2.50;1.00;;;;;;;;;;4878411;29;20088;-69
2022/07/27 08:25:24;;;;;;;5.78;0.82;;;;;;;;;;4865667;29;20038;-69
2022/07/27 08:27:50;;;;;;;3.85;1.00;;;;;;;;;;4877873;29;20063;-69
2022/07/27 08:30:16;;;;;;;3.17;0.82;;;;;;;;;;4870958;29;20398;-69
2022/07/27 08:32:47;;;;;;;5.85;1.20;;;;;;;;;;4869622;29;20043;-69
2022/07/27 08:35:15;;;;;;;3.42;0.98;;;;;;;;;;4875827;29;20032;-69
2022/07/27 08:37:41;;;;;;;1.80;0.90;;;;;;;;;;4877841;29;20024;-69
2022/07/27 08:40:08;;;;;;;1.73;0.88;;;;;;;;;;4877823;29;20379;-69
2022/07/27 08:42:34;;;;;;;1.75;0.73;;;;;;;;;;4876995;29;20088;-69
2022/07/27 08:45:01;;;;;;;4.47;0.90;;;;;;;;;;4876795;29;20021;-68
2022/07/27 08:47:28;;;;;;;2.50;1.05;;;;;;;;;;4864958;29;20037;-68
2022/07/27 08:49:56;;;;;;;2.42;0.90;;;;;;;;;;4861878;29;20060;-68
2022/07/27 08:52:23;;;;;;;2.00;1.00;;;;;;;;;;4860809;29;20045;-69
2022/07/27 08:54:49;;;;;;;0.90;0.73;;;;;;;;;;4878436;29;20507;-68
2022/07/27 08:57:15;;;;;;;1.17;0.82;;;;;;;;;;4878110;29;20103;-68
2022/07/27 08:59:42;;;;;;;2.03;0.93;;;;;;;;;;4871237;29;20040;-69
2022/07/27 09:02:09;;;;;;;2.28;1.02;;;;;;;;;;4870195;29;20051;-68
2022/07/27 09:04:38;;;;;;;1.48;0.90;;;;;;;;;;4874241;29;20053;-68
2022/07/27 09:07:04;;;;;;;5.80;0.90;;;;;;;;;;4879474;29;20036;-68
2022/07/27 09:09:42;;;;;;;6.57;1.10;;;;;;;;;;4867913;29;20038;-69
2022/07/27 09:12:09;;;;;;;2.25;0.70;;;;;;;;;;4874738;29;20043;-69
2022/07/27 09:14:36;;;;;;;1.40;0.93;;;;;;;;;;4869797;29;20033;-68
2022/07/27 09:17:32;;;;;;;4.43;0.93;;;;;;;;;;4859690;29;20036;-69
2022/07/27 09:20:00;;;;;;;2.22;0.90;;;;;;;;;;4872136;29;20051;-68
2022/07/27 09:22:39;;;;;;;1.40;0.80;;;;;;;;;;4877875;29;20039;-68
2022/07/27 09:25:06;;;;;;;1.67;0.82;;;;;;;;;;4873451;29;20509;-69
2022/07/27 09:27:32;;;;;;;2.17;0.82;;;;;;;;;;4869542;29;20041;-70
2022/07/27 09:30:02;;;;;;;2.20;0.90;;;;;;;;;;4859071;29;20026;-71
2022/07/27 09:32:29;;;;;;;3.33;0.95;;;;;;;;;;4874712;29;20055;-70
2022/07/27 09:34:55;;;;;;;2.15;0.80;;;;;;;;;;4877369;29;20040;-69
2022/07/27 09:37:28;;;;;;;4.40;1.10;;;;;;;;;;4850412;29;20398;-70
2022/07/27 09:40:10;;;;;;;3.53;1.15;;;;;;;;;;4862376;29;20515;-70
2022/07/27 09:42:36;;;;;;;2.97;1.00;;;;;;;;;;4868979;29;20386;-70
2022/07/27 09:45:03;;;;;;;3.78;1.10;;;;;;;;;;4864112;29;20036;-70
2022/07/27 09:47:30;;;;;;;1.20;0.95;;;;;;;;;;4873608;29;20402;-70
2022/07/27 09:49:57;;;;;;;4.88;1.30;;;;;;;;;;4865942;29;20037;-70
2022/07/27 09:52:25;;;;;;;1.63;0.90;;;;;;;;;;4867764;29;20402;-70
2022/07/27 09:54:52;;;;;;;8.93;0.90;;;;;;;;;;4861227;29;20025;-70
2022/07/27 09:57:18;;;;;;;2.17;0.93;;;;;;;;;;4859167;29;20029;-70
2022/07/27 09:59:45;;;;;;;2.42;0.70;;;;;;;;;;4870260;29;20039;-70
2022/07/27 10:02:12;;;;;;;1.90;1.05;;;;;;;;;;4869228;29;20521;-70
2022/07/27 10:04:39;;;;;;;3.00;0.90;;;;;;;;;;4871448;29;20049;-70
2022/07/27 10:07:06;;;;;;;3.15;0.90;;;;;;;;;;4884634;29;20029;-70
2022/07/27 10:09:33;;;;;;;2.00;1.10;;;;;;;;;;4880126;29;20044;-70
2022/07/27 10:12:02;;;;;;;1.83;1.00;;;;;;;;;;4880817;29;20013;-70
2022/07/27 10:14:28;;;;;;;2.85;0.93;;;;;;;;;;4880801;29;20035;-70
2022/07/27 10:16:55;;;;;;;2.13;0.90;;;;;;;;;;4881161;29;20029;-70
2022/07/27 10:19:25;;;;;;;2.47;0.88;;;;;;;;;;4880812;29;20025;-70
2022/07/27 10:21:51;;;;;;;5.93;1.10;;;;;;;;;;4879705;29;20033;-71
2022/07/27 10:24:27;;;;;;;1.08;0.80;;;;;;;;;;4880964;29;20032;-70
2022/07/27 10:26:54;;;;;;;2.13;1.08;;;;;;;;;;4880806;29;20063;-70
2022/07/27 10:29:22;;;;;;;1.90;1.00;;;;;;;;;;4880765;29;20049;-70
2022/07/27 10:31:54;;;;;;;1.30;0.80;;;;;;;;;;4881444;29;20039;-70
2022/07/27 10:34:35;;;;;;;2.05;0.88;;;;;;;;;;4881477;29;20025;-70
2022/07/27 10:37:12;;;;;;;2.47;1.00;;;;;;;;;;4880907;29;20029;-70
2022/07/27 10:39:41;;;;;;;5.40;1.10;;;;;;;;;;4881276;29;20044;-70
2022/07/27 10:42:17;;;;;;;2.10;1.50;;;;;;;;;;4881106;29;20032;-70
2022/07/27 10:44:51;;;;;;;1.98;0.98;;;;;;;;;;4881197;29;20457;-70
2022/07/27 10:47:27;;;;;;;2.17;0.90;;;;;;;;;;4880753;29;20024;-69
2022/07/27 10:50:13;;;;;;;2.17;0.80;;;;;;;;;;4881105;29;20043;-69
2022/07/27 10:52:50;;;;;;;3.10;0.80;;;;;;;;;;4880538;29;20021;-70
2022/07/27 10:55:32;;;;;;;0.68;0.52;;;;;;;;;;4881178;29;20043;-69
2022/07/27 10:58:14;;;;;;;2.72;1.10;;;;;;;;;;4881230;29;20039;-69
2022/07/27 11:00:50;;;;;;;3.38;0.95;;;;;;;;;;4880768;29;20111;-69
2022/07/27 11:03:20;;;;;;;2.03;1.00;;;;;;;;;;4880566;29;20045;-71
2022/07/27 11:06:18;;;;;;;5.53;1.15;;;;;;;;;;4880673;29;20397;-68
2022/07/27 11:08:46;;;;;;;3.22;1.00;;;;;;;;;;4823457;29;20050;-70
2022/07/27 11:11:17;;;;;;;2.47;1.25;;;;;;;;;;4823297;29;20536;-70
2022/07/27 11:13:44;;;;;;;1.98;0.88;;;;;;;;;;4823673;29;20090;-70
2022/07/27 11:16:14;;;;;;;2.78;0.90;;;;;;;;;;4822491;29;20035;-70
2022/07/27 11:18:41;;;;;;;3.58;0.70;;;;;;;;;;4823219;29;20038;-70
2022/07/27 11:21:18;;;;;;;2.28;0.90;;;;;;;;;;4822786;29;20037;-70
2022/07/27 11:23:45;;;;;;;2.38;1.00;;;;;;;;;;4823169;29;20027;-70
2022/07/27 11:26:11;;;;;;;1.77;0.80;;;;;;;;;;4823236;29;20412;-70
2022/07/27 11:28:38;;;;;;;1.13;0.70;;;;;;;;;;4822926;29;20129;-70
2022/07/27 11:31:06;;;;;;;2.25;1.00;;;;;;;;;;4822979;29;20034;-70
2022/07/27 11:33:32;;;;;;;5.90;1.20;;;;;;;;;;4823126;29;20037;-70
2022/07/27 11:36:00;;;;;;;1.00;0.80;;;;;;;;;;4822813;29;20030;-70
2022/07/27 11:38:26;;;;;;;2.45;0.80;;;;;;;;;;4823053;29;20043;-70
2022/07/27 11:40:53;;;;;;;1.35;0.80;;;;;;;;;;4823203;29;20037;-70
2022/07/27 11:43:40;;;;;;;3.20;1.25;;;;;;;;;;4826780;29;20034;-70
2022/07/27 11:46:17;;;;;;;2.25;0.88;;;;;;;;;;4861630;29;20475;-71
2022/07/27 11:48:50;;;;;;;4.05;1.00;;;;;;;;;;4861752;29;20088;-70
2022/07/27 11:51:17;;;;;;;2.08;0.90;;;;;;;;;;4861231;29;20029;-70
2022/07/27 11:53:43;;;;;;;4.40;1.00;;;;;;;;;;4861615;29;20037;-70
2022/07/27 11:56:10;;;;;;;2.65;0.77;;;;;;;;;;4861756;29;20045;-70
2022/07/27 11:58:55;;;;;;;2.17;0.82;;;;;;;;;;4861574;29;20059;-70
2022/07/27 12:01:28;;;;;;;1.90;1.02;;;;;;;;;;4860003;29;20033;-70
2022/07/27 12:04:04;;;;;;;2.03;0.95;;;;;;;;;;4861065;29;20238;-70
2022/07/27 12:06:34;;;;;;;2.03;0.88;;;;;;;;;;4869145;29;20040;-71
2022/07/27 12:09:05;;;;;;;1.13;0.82;;;;;;;;;;4879799;29;20045;-71
2022/07/27 12:11:49;;;;;;;2.20;0.88;;;;;;;;;;4879902;29;20498;-70
2022/07/27 12:14:19;;;;;;;1.25;0.82;;;;;;;;;;4879623;29;20029;-70
2022/07/27 12:16:45;;;;;;;1.52;0.80;;;;;;;;;;4879366;29;20029;-70
2022/07/27 12:19:12;;;;;;;2.35;0.80;;;;;;;;;;4879242;29;20029;-70
2022/07/27 12:21:39;;;;;;;3.20;1.00;;;;;;;;;;4874011;29;20486;-71
2022/07/27 12:24:06;;;;;;;2.92;0.93;;;;;;;;;;4878197;29;20044;-70
2022/07/27 12:26:32;;;;;;;1.58;1.00;;;;;;;;;;4877459;29;20029;-71
2022/07/27 12:29:09;;;;;;;1.77;0.90;;;;;;;;;;4878378;29;20130;-70
2022/07/27 12:31:36;;;;;;;3.30;0.80;;;;;;;;;;4877213;29;20033;-70
2022/07/27 12:34:06;;;;;;;1.67;0.90;;;;;;;;;;4876990;29;20080;-71
2022/07/27 12:36:32;;;;;;;3.00;1.07;;;;;;;;;;4877222;29;20055;-71
2022/07/27 12:38:59;;;;;;;4.57;0.80;;;;;;;;;;4876841;29;20032;-72
2022/07/27 12:41:26;;;;;;;1.00;0.70;;;;;;;;;;4877523;29;20049;-72
2022/07/27 12:44:09;;;;;;;2.00;0.93;;;;;;;;;;4877196;29;20021;-72
2022/07/27 12:46:52;;;;;;;1.90;0.82;;;;;;;;;;4878242;29;20036;-71
2022/07/27 12:49:23;;;;;;;2.72;0.90;;;;;;;;;;4876365;29;20045;-72
2022/07/27 12:51:50;;;;;;;3.13;0.98;;;;;;;;;;4877645;29;20021;-72
2022/07/27 12:54:16;;;;;;;3.00;0.80;;;;;;;;;;4878305;29;20047;-71
2022/07/27 12:56:43;;;;;;;2.10;0.85;;;;;;;;;;4886805;29;20035;-72
2022/07/27 12:59:09;;;;;;;1.02;0.85;;;;;;;;;;4896230;29;20035;-72
2022/07/27 13:01:36;;;;;;;1.13;0.73;;;;;;;;;;4895510;29;20041;-72
2022/07/27 13:04:02;;;;;;;2.25;0.88;;;;;;;;;;4895619;29;20040;-71
2022/07/27 13:06:29;;;;;;;3.95;1.30;;;;;;;;;;4894835;29;20076;-71
2022/07/27 13:08:56;;;;;;;1.10;0.85;;;;;;;;;;4877755;29;20418;-72
2022/07/27 13:11:22;;;;;;;1.90;0.90;;;;;;;;;;4878038;29;20098;-72
2022/07/27 13:13:49;;;;;;;2.63;0.80;;;;;;;;;;4878248;29;20076;-71
2022/07/27 13:16:15;;;;;;;2.50;0.70;;;;;;;;;;4863494;29;20395;-72
2022/07/27 13:18:41;;;;;;;5.38;1.00;;;;;;;;;;4859121;29;20063;-72
2022/07/27 13:21:08;;;;;;;2.33;0.80;;;;;;;;;;4866745;29;20029;-71
2022/07/27 13:23:34;;;;;;;1.10;0.60;;;;;;;;;;4877359;29;20036;-71
2022/07/27 13:26:00;;;;;;;1.38;0.88;;;;;;;;;;4878301;29;20021;-72
2022/07/27 13:28:27;;;;;;;1.63;0.75;;;;;;;;;;4878773;29;20039;-71
2022/07/27 13:30:53;;;;;;;1.40;0.95;;;;;;;;;;4878403;29;20301;-71
2022/07/27 13:33:19;;;;;;;2.42;0.95;;;;;;;;;;4888631;29;20028;-71
2022/07/27 13:35:46;;;;;;;1.83;0.80;;;;;;;;;;4897433;29;20027;-71
2022/07/27 13:38:14;;;;;;;1.42;0.80;;;;;;;;;;4896868;29;20498;-71
2022/07/27 13:40:40;;;;;;;2.22;0.73;;;;;;;;;;4896897;29;20047;-72
2022/07/27 13:43:06;;;;;;;3.47;0.90;;;;;;;;;;4897193;29;20032;-71
2022/07/27 13:45:33;;;;;;;3.03;0.73;;;;;;;;;;4896785;29;20025;-71
2022/07/27 13:47:59;;;;;;;2.75;0.80;;;;;;;;;;4896948;29;20037;-72
2022/07/27 13:50:26;;;;;;;0.80;0.68;;;;;;;;;;4896908;29;20489;-72
2022/07/27 13:52:53;;;;;;;2.42;0.80;;;;;;;;;;4897205;29;20378;-71
2022/07/27 13:55:19;;;;;;;0.82;0.60;;;;;;;;;;4897248;29;20032;-71
2022/07/27 13:57:46;;;;;;;3.08;0.77;;;;;;;;;;4896997;29;20413;-71
2022/07/27 14:00:13;;;;;;;2.53;0.70;;;;;;;;;;4896691;29;20478;-71
2022/07/27 14:02:39;;;;;;;1.77;0.80;;;;;;;;;;4897166;29;20035;-71
2022/07/27 14:05:07;;;;;;;4.45;1.00;;;;;;;;;;4896869;29;20051;-72
2022/07/27 14:07:33;;;;;;;3.40;1.00;;;;;;;;;;4887130;29;20040;-71
2022/07/27 14:12:45;;;;;;;1.92;1.17;;;;;;;;;;4878323;29;20029;-71
2022/07/27 14:15:11;;;;;;;1.98;1.00;;;;;;;;;;4861092;29;20035;-71
2022/07/27 14:17:37;;;;;;;1.27;0.73;;;;;;;;;;4878122;29;20033;-71
2022/07/27 14:20:04;;;;;;;1.40;0.90;;;;;;;;;;4878293;29;20029;-71
2022/07/27 14:22:31;;;;;;;0.98;0.80;;;;;;;;;;4877965;29;20025;-71
2022/07/27 14:24:57;;;;;;;1.02;0.60;;;;;;;;;;4878113;29;20039;-71
2022/07/27 14:27:24;;;;;;;1.65;0.80;;;;;;;;;;4878025;29;20498;-71
2022/07/27 14:29:50;;;;;;;2.05;0.90;;;;;;;;;;4874750;29;20522;-72
2022/07/27 14:32:16;;;;;;;2.30;1.05;;;;;;;;;;4877458;29;20025;-71
2022/07/27 14:34:43;;;;;;;1.60;0.75;;;;;;;;;;4877513;29;20533;-71
2022/07/27 14:37:09;;;;;;;1.75;0.90;;;;;;;;;;4877963;29;20081;-71
2022/07/27 14:39:35;;;;;;;5.88;0.82;;;;;;;;;;4878155;29;20025;-71
2022/07/27 14:42:01;;;;;;;1.70;0.77;;;;;;;;;;4877985;29;20049;-71
2022/07/27 14:44:28;;;;;;;4.68;0.90;;;;;;;;;;4877956;29;20021;-72
2022/07/27 14:46:54;;;;;;;2.60;0.80;;;;;;;;;;4877323;29;20030;-71
2022/07/27 14:49:20;;;;;;;3.40;0.90;;;;;;;;;;4877843;29;20049;-72
2022/07/27 14:51:47;;;;;;;2.50;1.08;;;;;;;;;;4880612;29;20039;-71
2022/07/27 14:54:13;;;;;;;3.88;0.88;;;;;;;;;;4881413;29;20039;-71